Time;durP1;ratioP1;P1;durP2;ratioP2;P2;SDS_P1;SDS_P2;PMS_P1;PMS_P2;Temp;Humidity;BMP_temperature;BMP_pressure;BME280_temperature;BME280_humidity;BME280_pressure;Samples;Min_cycle;Max_cycle;Signal;HPM_P1;HPM_P2
2021/04/06 00:01:58;;;;;;;;;;;;;;;5.04;49.99;99163.22;1818411;78;22616;-66
2021/04/06 00:04:31;;;;;;;;;;;;;;;4.96;50.10;99152.02;1812446;79;20204;-65
2021/04/06 00:07:02;;;;;;;;;;;;;;;4.90;50.30;99154.50;1803975;79;20148;-64
2021/04/06 00:09:31;;;;;;;;;;;;;;;4.88;50.40;99159.71;1773599;79;20155;-64
2021/04/06 00:12:00;;;;;;;;;;;;;;;4.89;50.54;99153.39;1812356;79;20219;-62
2021/04/06 00:14:28;;;;;;;;;;;;;;;4.89;50.71;99147.55;1805828;79;21216;-62
2021/04/06 00:16:56;;;;;;;;;;;;;;;4.88;50.88;99149.89;1798394;78;20801;-63
2021/04/06 00:19:24;;;;;;;;;;;;;;;4.84;51.07;99150.00;1812805;78;20307;-63
2021/04/06 00:21:55;;;;;;;;;;;;;;;4.80;51.41;99147.49;1790038;78;20209;-63
2021/04/06 00:24:24;;;;;;;;;;;;;;;4.73;51.72;99151.48;1802245;78;20282;-63
2021/04/06 00:27:12;;;;;;;;;;;;;;;4.68;52.07;99146.49;1781614;78;21357;-62
2021/04/06 00:29:42;;;;;;;;;;;;;;;4.61;52.42;99147.86;1798616;78;20219;-62
2021/04/06 00:32:10;;;;;;;;;;;;;;;4.52;53.05;99145.11;1799750;78;20147;-62
2021/04/06 00:34:38;;;;;;;;;;;;;;;4.46;53.37;99148.11;1811712;78;20213;-63
2021/04/06 00:37:16;;;;;;;;;;;;;;;4.44;53.88;99146.67;1789105;78;20222;-63
2021/04/06 00:39:44;;;;;;;;;;;;;;;4.42;54.21;99144.72;1811996;78;22085;-62
2021/04/06 00:42:14;;;;;;;;;;;;;;;4.42;54.65;99147.37;1789580;78;20222;-63
2021/04/06 00:44:43;;;;;;;;;;;;;;;4.41;54.82;99145.24;1810398;78;20578;-65
2021/04/06 00:47:11;;;;;;;;;;;;;;;4.39;55.19;99147.30;1812364;78;20559;-65
2021/04/06 00:49:40;;;;;;;;;;;;;;;4.38;55.33;99145.66;1813346;78;20145;-65
2021/04/06 00:52:07;;;;;;;;;;;;;;;4.36;55.48;99150.38;1807387;78;21978;-66
2021/04/06 00:54:35;;;;;;;;;;;;;;;4.34;55.71;99146.60;1789193;78;20215;-65
2021/04/06 00:57:05;;;;;;;;;;;;;;;4.33;56.14;99144.96;1804526;78;20212;-64
2021/04/06 00:59:33;;;;;;;;;;;;;;;4.28;56.37;99148.73;1803588;78;20212;-64
2021/04/06 01:02:05;;;;;;;;;;;;;;;4.24;56.59;99146.70;1790424;78;20218;-66
2021/04/06 01:04:37;;;;;;;;;;;;;;;4.19;56.99;99136.71;1805702;78;22129;-65
2021/04/06 01:07:13;;;;;;;;;;;;;;;4.17;57.26;99136.11;1811814;78;20505;-65
2021/04/06 01:09:49;;;;;;;;;;;;;;;4.14;57.34;99137.33;1813777;78;20298;-65
2021/04/06 01:12:20;;;;;;;;;;;;;;;4.11;57.66;99139.08;1783653;78;20127;-65
2021/04/06 01:14:49;;;;;;;;;;;;;;;4.11;57.87;99133.77;1811979;78;20516;-64
2021/04/06 01:17:18;;;;;;;;;;;;;;;4.10;58.05;99137.44;1818687;78;21446;-66
2021/04/06 01:19:46;;;;;;;;;;;;;;;4.09;58.28;99131.02;1821854;78;20219;-66
2021/04/06 01:22:15;;;;;;;;;;;;;;;4.06;58.51;99130.09;1820966;78;20133;-65
2021/04/06 01:24:43;;;;;;;;;;;;;;;4.02;58.78;99124.41;1823758;78;20167;-63
2021/04/06 01:27:14;;;;;;;;;;;;;;;4.00;59.15;99132.53;1664572;85;20308;-65
2021/04/06 01:29:54;;;;;;;;;;;;;;;4.05;59.14;99131.95;1815717;77;20217;-65
2021/04/06 01:32:23;;;;;;;;;;;;;;;3.97;59.46;99135.59;1802084;77;20168;-64
2021/04/06 01:34:52;;;;;;;;;;;;;;;3.94;59.62;99140.51;1802295;77;22295;-63
2021/04/06 01:37:24;;;;;;;;;;;;;;;3.91;59.70;99142.25;1768857;79;20505;-63
2021/04/06 01:39:55;;;;;;;;;;;;;;;3.90;59.99;99144.09;1781879;79;20204;-64
2021/04/06 01:42:24;;;;;;;;;;;;;;;3.84;60.10;99145.72;1767725;80;20206;-64
2021/04/06 01:44:56;;;;;;;;;;;;;;;3.85;60.18;99142.55;1767542;80;20174;-64
2021/04/06 01:47:25;;;;;;;;;;;;;;;3.86;60.25;99145.00;1769678;80;21206;-63
2021/04/06 01:49:53;;;;;;;;;;;;;;;3.87;60.36;99144.48;1765513;80;20166;-64
2021/04/06 01:52:23;;;;;;;;;;;;;;;3.85;60.54;99143.88;1770494;80;20519;-63
2021/04/06 01:54:55;;;;;;;;;;;;;;;3.84;60.65;99151.02;1766046;80;20163;-64
2021/04/06 01:57:27;;;;;;;;;;;;;;;3.85;60.76;99144.69;1769363;80;20312;-65
2021/04/06 02:00:05;;;;;;;;;;;;;;;3.84;60.86;99154.16;1767410;80;22143;-66
2021/04/06 02:02:28;;;;;;;;;;;;;;;3.83;61.03;99153.88;1768519;80;20150;-65
2021/04/06 02:04:57;;;;;;;;;;;;;;;3.82;61.18;99149.07;1766801;80;20256;-66
2021/04/06 02:07:29;;;;;;;;;;;;;;;3.81;61.39;99138.18;1770814;80;20250;-67
2021/04/06 02:09:56;;;;;;;;;;;;;;;3.81;61.66;99130.23;1768687;80;20241;-66
2021/04/06 02:12:24;;;;;;;;;;;;;;;3.83;61.92;99134.00;1769172;80;21210;-66
2021/04/06 02:14:55;;;;;;;;;;;;;;;3.80;62.05;99140.52;1763240;80;20198;-66
2021/04/06 02:17:23;;;;;;;;;;;;;;;3.78;62.29;99133.78;1767617;80;20190;-66
2021/04/06 02:19:51;;;;;;;;;;;;;;;3.75;62.35;99136.84;1770840;80;20234;-65
2021/04/06 02:22:20;;;;;;;;;;;;;;;3.75;62.64;99131.02;1768212;80;20222;-66
2021/04/06 02:24:52;;;;;;;;;;;;;;;3.75;62.68;99127.56;1767520;80;21215;-66
2021/04/06 02:27:21;;;;;;;;;;;;;;;3.73;62.96;99127.77;1770062;80;20493;-66
2021/04/06 02:29:52;;;;;;;;;;;;;;;3.75;63.25;99128.88;1742708;80;20144;-66
2021/04/06 02:32:28;;;;;;;;;;;;;;;3.75;63.45;99120.41;1739443;81;20250;-66
2021/04/06 02:34:58;;;;;;;;;;;;;;;3.75;63.44;99120.41;1739594;81;20240;-65
2021/04/06 02:37:27;;;;;;;;;;;;;;;3.76;63.51;99119.92;1737046;81;21219;-66
2021/04/06 02:39:58;;;;;;;;;;;;;;;3.75;63.62;99117.76;1739732;81;20566;-66
2021/04/06 02:42:36;;;;;;;;;;;;;;;3.73;63.69;99115.03;1736423;81;20539;-65
2021/04/06 02:45:17;;;;;;;;;;;;;;;3.72;63.79;99120.02;1736759;81;20283;-66
2021/04/06 02:47:48;;;;;;;;;;;;;;;3.67;63.88;99120.62;1735009;81;20310;-66
2021/04/06 02:50:18;;;;;;;;;;;;;;;3.64;64.02;99123.17;1737026;81;21208;-66
2021/04/06 02:52:46;;;;;;;;;;;;;;;3.65;64.19;99126.63;1740016;81;20154;-67
2021/04/06 02:55:14;;;;;;;;;;;;;;;3.65;64.32;99120.00;1738373;81;20172;-66
2021/04/06 02:57:45;;;;;;;;;;;;;;;3.71;64.29;99120.53;1738922;81;20149;-66
2021/04/06 03:00:29;;;;;;;;;;;;;;;3.77;64.24;99113.58;1737542;81;20628;-66
2021/04/06 03:03:19;;;;;;;;;;;;;;;3.80;64.11;99110.55;1736007;81;21220;-66
2021/04/06 03:05:47;;;;;;;;;;;;;;;3.81;64.04;99112.98;1739116;81;20534;-66
2021/04/06 03:08:15;;;;;;;;;;;;;;;3.86;63.93;99111.05;1738960;81;20163;-65
2021/04/06 03:10:43;;;;;;;;;;;;;;;3.88;63.91;99107.67;1708030;81;20249;-66
2021/04/06 03:13:12;;;;;;;;;;;;;;;3.88;63.89;99110.84;1736160;81;20198;-66
2021/04/06 03:15:43;;;;;;;;;;;;;;;3.85;63.87;99118.17;1740180;81;21215;-68
2021/04/06 03:18:12;;;;;;;;;;;;;;;3.83;63.90;99115.44;1707767;81;20158;-67
2021/04/06 03:20:45;;;;;;;;;;;;;;;3.81;64.01;99112.16;1738961;81;20234;-64
2021/04/06 03:23:10;;;;;;;;;;;;;;;3.80;64.17;99115.33;1735288;81;20294;-64
2021/04/06 03:25:38;;;;;;;;;;;;;;;3.78;64.34;99112.05;1739987;81;20236;-65
2021/04/06 03:28:09;;;;;;;;;;;;;;;3.78;64.35;99108.07;1737587;80;21204;-64
2021/04/06 03:30:38;;;;;;;;;;;;;;;3.81;64.49;99118.78;1755738;81;20152;-65
2021/04/06 03:33:10;;;;;;;;;;;;;;;3.82;64.41;99114.60;1756600;81;20239;-65
2021/04/06 03:35:39;;;;;;;;;;;;;;;3.83;64.40;99110.94;1756657;81;20227;-65
2021/04/06 03:38:08;;;;;;;;;;;;;;;3.88;64.42;99108.19;1756607;81;20233;-65
2021/04/06 03:40:38;;;;;;;;;;;;;;;3.88;64.47;99117.47;1754339;81;21265;-65
2021/04/06 03:43:14;;;;;;;;;;;;;;;3.88;64.47;99117.47;1666656;85;20844;-64
2021/04/06 03:46:01;;;;;;;;;;;;;;;3.90;64.53;99122.05;1670885;85;20218;-66
2021/04/06 03:48:32;;;;;;;;;;;;;;;3.96;64.58;99127.36;1668585;85;20241;-64
2021/04/06 03:51:26;;;;;;;;;;;;;;;4.06;64.88;99126.92;1829087;77;20192;-62
2021/04/06 03:53:54;;;;;;;;;;;;;;;4.03;64.90;99132.16;1801404;79;20200;-62
2021/04/06 03:56:31;;;;;;;;;;;;;;;4.06;65.08;99139.37;1789875;79;21293;-65
2021/04/06 03:59:10;;;;;;;;;;;;;;;4.08;65.17;99132.02;1800590;79;20136;-66
2021/04/06 04:01:29;;;;;;;;;;;;;;;4.11;65.20;99140.89;1798349;79;20222;-64
2021/04/06 04:03:57;;;;;;;;;;;;;;;4.09;65.42;99135.80;1802343;79;20145;-65
2021/04/06 04:06:25;;;;;;;;;;;;;;;4.10;65.60;99145.91;1801600;79;20151;-64
2021/04/06 04:08:53;;;;;;;;;;;;;;;4.14;65.69;99146.62;1803186;79;21217;-64
2021/04/06 04:11:23;;;;;;;;;;;;;;;4.22;65.69;99146.91;1803026;79;20179;-65
2021/04/06 04:13:51;;;;;;;;;;;;;;;4.30;65.60;99144.05;1802669;79;20373;-65
2021/04/06 04:16:19;;;;;;;;;;;;;;;4.47;65.51;99137.77;1799665;79;20358;-62
2021/04/06 04:18:47;;;;;;;;;;;;;;;4.83;65.04;99139.10;1799623;79;20496;-61
2021/04/06 04:21:15;;;;;;;;;;;;;;;5.20;64.11;99143.32;1802156;79;21355;-61
2021/04/06 04:23:43;;;;;;;;;;;;;;;5.60;63.38;99137.75;1802002;79;20310;-61
2021/04/06 04:26:11;;;;;;;;;;;;;;;6.18;61.83;99139.06;1799465;78;20151;-62
2021/04/06 04:28:38;;;;;;;;;;;;;;;6.78;60.23;99139.77;1801798;79;20226;-61
2021/04/06 04:31:10;;;;;;;;;;;;;;;7.44;58.71;99143.95;1793869;79;20223;-61
2021/04/06 04:33:36;;;;;;;;;;;;;;;8.29;56.37;99135.28;1801997;79;21089;-62
2021/04/06 04:36:06;;;;;;;;;;;;;;;9.19;54.64;99139.84;1800885;79;20190;-62
2021/04/06 04:38:34;;;;;;;;;;;;;;;10.01;51.38;99129.17;1771106;79;20117;-62
2021/04/06 04:41:01;;;;;;;;;;;;;;;10.40;49.16;99129.78;1787772;79;20133;-61
2021/04/06 04:43:30;;;;;;;;;;;;;;;10.07;49.32;99139.44;1787740;79;20287;-61
2021/04/06 04:45:58;;;;;;;;;;;;;;;9.63;50.13;99136.08;1787304;79;21428;-62
2021/04/06 04:48:26;;;;;;;;;;;;;;;9.18;50.92;99136.88;1754918;79;20481;-63
2021/04/06 04:50:54;;;;;;;;;;;;;;;9.03;51.78;99142.74;1782100;79;20479;-64
2021/04/06 04:53:23;;;;;;;;;;;;;;;9.56;51.03;99138.09;1782129;79;20245;-63
2021/04/06 04:55:51;;;;;;;;;;;;;;;10.13;49.46;99136.60;1777724;79;20149;-62
2021/04/06 04:58:22;;;;;;;;;;;;;;;10.27;49.25;99134.38;1782287;79;21335;-63
2021/04/06 05:00:50;;;;;;;;;;;;;;;10.51;48.32;99128.84;1780940;79;20208;-62
2021/04/06 05:03:18;;;;;;;;;;;;;;;10.74;47.72;99131.82;1679142;84;20293;-63
2021/04/06 05:05:46;;;;;;;;;;;;;;;10.65;47.66;99127.97;1677225;84;20314;-64
2021/04/06 05:08:14;;;;;;;;;;;;;;;10.55;48.14;99128.63;1680430;84;20647;-63
2021/04/06 05:10:42;;;;;;;;;;;;;;;11.08;47.50;99124.98;1679742;84;20540;-62
2021/04/06 05:13:10;;;;;;;;;;;;;;;11.91;46.63;99123.34;1680174;84;20250;-64
2021/04/06 05:15:38;;;;;;;;;;;;;;;12.88;44.38;99123.65;1675799;84;20516;-63
2021/04/06 05:18:06;;;;;;;;;;;;;;;13.25;42.12;99118.64;1679097;84;20274;-63
2021/04/06 05:20:34;;;;;;;;;;;;;;;12.99;42.49;99111.03;1678851;84;20552;-62
2021/04/06 05:23:02;;;;;;;;;;;;;;;13.00;43.17;99126.63;1676611;84;21123;-63
2021/04/06 05:25:31;;;;;;;;;;;;;;;13.55;42.22;99118.98;1651789;84;20178;-61
2021/04/06 05:27:59;;;;;;;;;;;;;;;14.32;41.74;99122.41;1730867;79;20554;-63
2021/04/06 05:30:27;;;;;;;;;;;;;;;15.24;38.79;99113.73;1781233;79;20138;-64
2021/04/06 05:32:55;;;;;;;;;;;;;;;15.48;37.70;99107.08;1781176;79;20256;-63
2021/04/06 05:35:23;;;;;;;;;;;;;;;15.58;37.57;99107.56;1782478;79;22316;-62
2021/04/06 05:37:53;;;;;;;;;;;;;;;16.15;37.65;99111.97;1780907;79;20185;-62
2021/04/06 05:40:21;;;;;;;;;;;;;;;17.18;35.13;99095.06;1779083;79;20227;-62
2021/04/06 05:42:49;;;;;;;;;;;;;;;17.59;33.84;99102.58;1781279;79;20586;-62
2021/04/06 05:45:19;;;;;;;;;;;;;;;17.51;34.02;99097.28;1778661;79;20298;-62
2021/04/06 05:47:49;;;;;;;;;;;;;;;17.50;33.66;99109.22;1780438;79;21215;-62
2021/04/06 05:50:17;;;;;;;;;;;;;;;17.42;34.49;99107.98;1783462;79;20562;-62
2021/04/06 05:52:45;;;;;;;;;;;;;;;17.66;33.48;99101.09;1781233;79;20518;-63
2021/04/06 05:55:14;;;;;;;;;;;;;;;17.46;33.67;99087.34;1753254;79;20142;-63
2021/04/06 05:57:42;;;;;;;;;;;;;;;17.14;34.53;99100.27;1781410;79;20141;-63
2021/04/06 06:00:10;;;;;;;;;;;;;;;17.14;34.25;99094.86;1783883;79;21219;-62
2021/04/06 06:02:39;;;;;;;;;;;;;;;17.44;34.89;99097.64;1780413;79;20316;-62
2021/04/06 06:05:08;;;;;;;;;;;;;;;18.12;33.40;99098.73;1788111;78;20278;-63
2021/04/06 06:07:36;;;;;;;;;;;;;;;18.76;32.74;99096.69;1788945;78;20560;-62
2021/04/06 06:10:26;;;;;;;;;;;;;;;19.61;31.47;99101.09;1779372;79;20151;-61
2021/04/06 06:12:57;;;;;;;;;;;;;;;20.31;29.90;99097.41;1782884;79;20946;-63
2021/04/06 06:15:26;;;;;;;;;;;;;;;20.34;29.30;99098.72;1759471;79;20564;-63
2021/04/06 06:18:06;;;;;;;;;;;;;;;19.65;30.06;99100.69;1781229;79;20230;-63
2021/04/06 06:20:35;;;;;;;;;;;;;;;18.74;31.45;99111.38;1778820;79;20247;-62
2021/04/06 06:23:20;;;;;;;;;;;;;;;17.78;32.93;99106.61;1781105;79;20295;-63
2021/04/06 06:26:09;;;;;;;;;;;;;;;16.78;34.92;99089.88;1826696;77;20176;-62
2021/04/06 06:28:37;;;;;;;;;;;;;;;16.09;36.21;99113.91;1826739;77;20180;-63
2021/04/06 06:31:08;;;;;;;;;;;;;;;16.02;36.73;99114.78;1835094;77;21197;-63
2021/04/06 06:33:36;;;;;;;;;;;;;;;16.30;36.56;99115.06;1691702;83;20313;-64
2021/04/06 06:36:11;;;;;;;;;;;;;;;16.48;36.33;99118.13;1701898;83;20154;-63
2021/04/06 06:38:42;;;;;;;;;;;;;;;16.55;36.15;99122.09;1698639;83;20601;-62
2021/04/06 06:41:19;;;;;;;;;;;;;;;16.62;36.32;99111.73;1700915;83;20531;-61
2021/04/06 06:43:55;;;;;;;;;;;;;;;17.07;36.44;99112.02;1827142;77;20691;-63
2021/04/06 06:46:30;;;;;;;;;;;;;;;17.61;34.58;99099.84;1818912;79;20156;-64
2021/04/06 06:49:03;;;;;;;;;;;;;;;17.61;35.00;99114.73;1781914;79;21217;-63
2021/04/06 06:51:36;;;;;;;;;;;;;;;17.67;34.63;99103.27;1795325;79;20167;-63
2021/04/06 06:54:05;;;;;;;;;;;;;;;17.67;34.68;99112.76;1813156;79;20133;-63
2021/04/06 06:56:40;;;;;;;;;;;;;;;17.55;34.60;99097.48;1794387;79;20247;-62
2021/04/06 06:59:08;;;;;;;;;;;;;;;17.26;35.65;99125.56;1802554;78;20137;-61
2021/04/06 07:01:38;;;;;;;;;;;;;;;17.54;35.30;99131.91;1805250;79;20149;-62
2021/04/06 07:04:12;;;;;;;;;;;;;;;18.03;35.25;99126.55;1816510;78;20153;-64
2021/04/06 07:06:45;;;;;;;;;;;;;;;18.72;33.75;99130.42;1804903;79;20113;-63
2021/04/06 07:09:20;;;;;;;;;;;;;;;19.31;32.94;99138.71;1803317;79;20335;-62
2021/04/06 07:11:49;;;;;;;;;;;;;;;19.51;31.75;99127.94;1816088;78;20232;-63
2021/04/06 07:14:17;;;;;;;;;;;;;;;18.79;32.57;99113.75;1808946;79;22117;-64
2021/04/06 07:16:47;;;;;;;;;;;;;;;17.71;34.37;99131.40;1817341;79;20165;-62
2021/04/06 07:19:15;;;;;;;;;;;;;;;16.87;35.95;99142.31;1818371;79;20148;-63
2021/04/06 07:21:42;;;;;;;;;;;;;;;15.90;37.50;99150.29;1818536;79;20326;-62
2021/04/06 07:24:20;;;;;;;;;;;;;;;15.03;38.88;99148.92;1816123;79;20136;-62
2021/04/06 07:26:48;;;;;;;;;;;;;;;14.56;40.04;99154.20;1816523;79;21198;-63
2021/04/06 07:29:16;;;;;;;;;;;;;;;14.04;41.47;99149.41;1816227;79;20152;-62
2021/04/06 07:31:43;;;;;;;;;;;;;;;13.40;43.32;99145.34;1818556;79;20156;-62
2021/04/06 07:34:12;;;;;;;;;;;;;;;13.02;44.26;99144.12;1812731;79;20176;-63
2021/04/06 07:36:40;;;;;;;;;;;;;;;12.82;44.92;99143.50;1785313;79;20367;-62
2021/04/06 07:39:09;;;;;;;;;;;;;;;12.80;45.30;99138.94;1763822;80;21286;-62
2021/04/06 07:41:43;;;;;;;;;;;;;;;12.65;45.59;99144.23;1766182;80;20191;-62
2021/04/06 07:44:11;;;;;;;;;;;;;;;12.41;46.16;99152.19;1772607;79;20131;-63
2021/04/06 07:46:40;;;;;;;;;;;;;;;12.19;46.82;99144.25;1767542;80;20246;-61
2021/04/06 07:49:11;;;;;;;;;;;;;;;12.20;47.13;99140.48;1767193;80;20255;-61
2021/04/06 07:51:48;;;;;;;;;;;;;;;12.36;46.84;99134.67;1771563;79;22160;-61
2021/04/06 07:54:18;;;;;;;;;;;;;;;12.48;46.67;99133.67;1739733;80;20179;-62
2021/04/06 07:56:55;;;;;;;;;;;;;;;12.48;46.45;99136.36;1776737;80;20295;-61
2021/04/06 07:59:27;;;;;;;;;;;;;;;12.49;46.70;99133.95;1765150;80;20254;-62
2021/04/06 08:01:59;;;;;;;;;;;;;;;12.59;46.56;99138.84;1765656;80;20147;-62
2021/04/06 08:04:40;;;;;;;;;;;;;;;12.60;46.22;99142.33;1767928;80;21946;-61
2021/04/06 08:07:23;;;;;;;;;;;;;;;12.44;47.02;99134.19;1769756;80;20214;-62
2021/04/06 08:09:57;;;;;;;;;;;;;;;12.36;47.10;99138.70;1785878;80;20107;-63
2021/04/06 08:12:35;;;;;;;;;;;;;;;12.24;47.21;99134.07;1783609;80;20146;-62
2021/04/06 08:15:12;;;;;;;;;;;;;;;12.15;47.59;99133.74;1785339;80;20223;-63
2021/04/06 08:17:46;;;;;;;;;;;;;;;12.13;47.87;99137.23;1785518;80;20226;-60
2021/04/06 08:20:36;;;;;;;;;;;;;;;12.11;47.42;99142.03;1783547;80;20206;-61
2021/04/06 08:23:13;;;;;;;;;;;;;;;12.01;47.71;99133.36;1783572;80;20306;-61
2021/04/06 08:25:44;;;;;;;;;;;;;;;11.86;48.21;99131.34;1776347;79;20127;-62
2021/04/06 08:28:24;;;;;;;;;;;;;;;11.78;47.92;99140.40;1782106;80;20239;-65
2021/04/06 08:30:54;;;;;;;;;;;;;;;11.77;48.34;99140.94;1783991;79;20528;-63
2021/04/06 08:33:25;;;;;;;;;;;;;;;11.87;49.22;99132.97;1749737;79;20339;-62
2021/04/06 08:35:57;;;;;;;;;;;;;;;12.02;47.91;99132.30;1782278;80;20151;-62
2021/04/06 08:38:28;;;;;;;;;;;;;;;12.18;47.48;99125.70;1784353;80;20820;-61
2021/04/06 08:41:04;;;;;;;;;;;;;;;12.29;47.78;99121.20;1778971;79;20226;-61
2021/04/06 08:43:38;;;;;;;;;;;;;;;12.46;47.49;99119.15;1780869;80;21206;-61
2021/04/06 08:46:13;;;;;;;;;;;;;;;12.62;46.72;99112.77;1753999;80;20298;-62
2021/04/06 08:48:57;;;;;;;;;;;;;;;12.71;45.93;99114.42;1775373;80;20278;-62
2021/04/06 08:51:39;;;;;;;;;;;;;;;12.67;46.21;99113.33;1782469;80;20508;-60
2021/04/06 08:54:13;;;;;;;;;;;;;;;12.66;46.22;99103.66;1781161;80;20286;-62
2021/04/06 08:56:42;;;;;;;;;;;;;;;12.74;45.88;99107.17;1778493;80;21199;-61
2021/04/06 08:59:31;;;;;;;;;;;;;;;12.87;45.62;99113.95;1783110;80;20342;-62
2021/04/06 09:02:15;;;;;;;;;;;;;;;12.92;45.23;99105.09;1781582;80;20167;-61
2021/04/06 09:04:47;;;;;;;;;;;;;;;12.90;44.01;99116.66;1782623;80;20314;-63
2021/04/06 09:07:20;;;;;;;;;;;;;;;12.86;44.84;99107.50;1780465;80;20492;-62
2021/04/06 09:09:50;;;;;;;;;;;;;;;12.97;44.04;99107.81;1780011;80;21204;-61
2021/04/06 09:12:19;;;;;;;;;;;;;;;13.04;43.74;99107.00;1782491;80;20505;-61
2021/04/06 09:14:46;;;;;;;;;;;;;;;13.10;43.36;99107.30;1783170;80;20238;-61
2021/04/06 09:17:21;;;;;;;;;;;;;;;13.12;43.84;99109.19;1753134;80;20135;-62
2021/04/06 09:19:49;;;;;;;;;;;;;;;13.17;43.37;99107.03;1750892;80;20493;-61
2021/04/06 09:22:18;;;;;;;;;;;;;;;13.18;43.14;99109.21;1782866;80;22725;-63
2021/04/06 09:24:46;;;;;;;;;;;;;;;13.20;43.12;99099.77;1782975;80;20322;-63
2021/04/06 09:27:14;;;;;;;;;;;;;;;13.29;42.47;99106.79;1778022;80;20239;-63
2021/04/06 09:29:45;;;;;;;;;;;;;;;13.31;42.33;99108.15;1783439;79;20232;-62
2021/04/06 09:32:16;;;;;;;;;;;;;;;13.32;42.77;99102.22;1783198;80;20214;-61
2021/04/06 09:34:46;;;;;;;;;;;;;;;13.36;42.44;99118.69;1784843;79;21219;-63
2021/04/06 09:37:16;;;;;;;;;;;;;;;13.32;42.75;99105.73;1783075;79;20135;-62
2021/04/06 09:39:48;;;;;;;;;;;;;;;13.39;41.92;99101.45;1779698;79;20159;-63
2021/04/06 09:42:16;;;;;;;;;;;;;;;13.38;41.54;99095.80;1780141;80;20324;-62
2021/04/06 09:44:46;;;;;;;;;;;;;;;13.32;41.90;99100.36;1740900;81;20239;-62
2021/04/06 09:47:19;;;;;;;;;;;;;;;13.24;42.27;99102.76;1769758;79;21335;-62
2021/04/06 09:49:48;;;;;;;;;;;;;;;13.18;41.92;99093.06;1768833;81;20294;-62
2021/04/06 09:52:18;;;;;;;;;;;;;;;13.14;41.05;99083.36;1769768;81;20303;-62
2021/04/06 09:54:55;;;;;;;;;;;;;;;13.19;41.35;99097.35;1767202;81;20607;-61
2021/04/06 09:57:29;;;;;;;;;;;;;;;13.28;40.11;99106.52;1769112;81;20155;-61
2021/04/06 09:59:57;;;;;;;;;;;;;;;13.35;40.39;99094.19;1769697;80;21193;-62
2021/04/06 10:02:27;;;;;;;;;;;;;;;13.34;40.06;99089.34;1767305;81;20239;-62
2021/04/06 10:04:55;;;;;;;;;;;;;;;13.25;40.54;99093.59;1769903;79;20235;-62
2021/04/06 10:07:32;;;;;;;;;;;;;;;13.14;40.41;99096.81;1766441;81;20957;-62
2021/04/06 10:10:05;;;;;;;;;;;;;;;13.00;39.97;99083.06;1737929;81;20593;-62
2021/04/06 10:12:34;;;;;;;;;;;;;;;12.89;40.59;99088.94;1769622;81;21262;-62
2021/04/06 10:15:03;;;;;;;;;;;;;;;12.88;41.54;99082.48;1769595;81;20238;-62
2021/04/06 10:17:36;;;;;;;;;;;;;;;12.94;41.18;99090.31;1769619;81;20215;-62
2021/04/06 10:20:13;;;;;;;;;;;;;;;13.04;40.67;99094.09;1740599;81;20916;-62
2021/04/06 10:22:43;;;;;;;;;;;;;;;13.10;40.00;99086.30;1769995;80;20294;-63
2021/04/06 10:25:14;;;;;;;;;;;;;;;13.06;39.65;99071.76;1766832;81;21405;-62
2021/04/06 10:27:45;;;;;;;;;;;;;;;12.98;40.15;99078.47;1766387;81;20798;-62
2021/04/06 10:30:16;;;;;;;;;;;;;;;13.01;40.95;99083.87;1769234;80;20310;-62
2021/04/06 10:32:46;;;;;;;;;;;;;;;13.13;40.14;99071.80;1769497;81;20263;-63
2021/04/06 10:35:25;;;;;;;;;;;;;;;13.24;39.41;99069.92;1769213;79;20151;-63
2021/04/06 10:38:00;;;;;;;;;;;;;;;13.33;39.68;99060.23;1709582;81;21200;-62
2021/04/06 10:43:57;;;;;;;;;;;;;;;13.40;39.25;99057.31;1771388;79;20187;-63
2021/04/06 10:49:57;;;;;;;;;;;;;;;13.39;38.52;99053.55;1770698;79;20536;-63
2021/04/06 10:56:16;;;;;;;;;;;;;;;13.36;38.03;99044.67;1774048;81;20179;-63
2021/04/06 11:02:19;;;;;;;;;;;;;;;13.20;39.46;99024.98;1773281;81;20596;-63
2021/04/06 11:08:24;;;;;;;;;;;;;;;13.17;39.00;99024.17;1772793;81;20195;-65
2021/04/06 11:14:24;;;;;;;;;;;;;;;13.25;38.80;99017.72;1683689;84;20202;-62
2021/04/06 11:20:22;;;;;;;;;;;;;;;13.29;39.22;99012.59;1686293;84;20544;-63
2021/04/06 11:22:51;;;;;;;;;;;;;;;13.42;38.69;98998.62;1682343;84;21275;-65
2021/04/06 11:28:11;;;;;;;;;;;;;;;13.55;38.00;98997.83;1690733;81;20289;-65
2021/04/06 11:30:48;;;;;;;;;;;;;;;13.51;38.15;98997.55;1774353;81;20243;-64
2021/04/06 11:33:21;;;;;;;;;;;;;;;13.47;38.89;98994.60;1773858;81;20266;-62
2021/04/06 11:35:54;;;;;;;;;;;;;;;13.47;38.60;99001.33;1751116;81;21952;-62
2021/04/06 11:38:26;;;;;;;;;;;;;;;13.48;38.79;98989.47;1754291;81;20286;-64
2021/04/06 11:40:54;;;;;;;;;;;;;;;13.54;38.45;98981.40;1753337;80;20187;-64
2021/04/06 11:43:21;;;;;;;;;;;;;;;13.57;37.64;98995.11;1758521;81;21052;-64
2021/04/06 11:45:50;;;;;;;;;;;;;;;13.57;37.84;98991.08;1754917;81;20257;-66
2021/04/06 11:48:17;;;;;;;;;;;;;;;13.55;37.77;98993.23;1757157;81;21209;-66
2021/04/06 11:50:47;;;;;;;;;;;;;;;13.57;38.36;98991.62;1756970;81;20210;-65
2021/04/06 11:53:16;;;;;;;;;;;;;;;13.61;38.47;98980.59;1756489;81;20143;-64
2021/04/06 11:55:44;;;;;;;;;;;;;;;13.60;38.43;98984.34;1756414;81;20578;-65
2021/04/06 11:58:12;;;;;;;;;;;;;;;13.51;39.30;98976.56;1758992;81;20115;-63
2021/04/06 12:00:40;;;;;;;;;;;;;;;13.40;38.98;98964.45;1753085;81;21189;-66
2021/04/06 12:03:08;;;;;;;;;;;;;;;13.31;38.75;98972.78;1755637;81;20209;-65
2021/04/06 12:05:36;;;;;;;;;;;;;;;13.26;39.32;98968.19;1757524;81;20512;-65
2021/04/06 12:08:04;;;;;;;;;;;;;;;13.27;39.02;98963.63;1756888;81;20540;-64
2021/04/06 12:10:32;;;;;;;;;;;;;;;13.22;39.50;98967.14;1756071;81;20279;-66
2021/04/06 12:13:00;;;;;;;;;;;;;;;13.20;39.90;98962.55;1756105;81;22785;-66
2021/04/06 12:15:29;;;;;;;;;;;;;;;13.23;39.72;98962.55;1756436;81;20250;-67
2021/04/06 12:17:56;;;;;;;;;;;;;;;13.28;39.83;98963.36;1732352;81;20598;-66
2021/04/06 12:20:25;;;;;;;;;;;;;;;13.37;38.39;98950.72;1732492;81;20513;-66
2021/04/06 12:22:52;;;;;;;;;;;;;;;13.38;38.86;98956.37;1755842;81;20596;-65
2021/04/06 12:25:20;;;;;;;;;;;;;;;13.42;38.38;98951.52;1753583;80;21199;-66
2021/04/06 12:27:48;;;;;;;;;;;;;;;13.45;38.38;98946.94;1755042;81;21934;-65
2021/04/06 12:30:17;;;;;;;;;;;;;;;13.46;38.42;98936.45;1731802;81;20245;-64
2021/04/06 12:32:44;;;;;;;;;;;;;;;13.46;38.51;98937.00;1758013;81;20504;-63
2021/04/06 12:35:13;;;;;;;;;;;;;;;13.47;38.45;98945.32;1752728;81;20233;-63
2021/04/06 12:37:40;;;;;;;;;;;;;;;13.47;38.52;98937.25;1732452;81;21293;-63
2021/04/06 12:40:09;;;;;;;;;;;;;;;13.44;38.27;98942.66;1755626;80;20154;-63
2021/04/06 12:42:37;;;;;;;;;;;;;;;13.40;38.05;98941.58;1754861;81;20253;-68
2021/04/06 12:45:06;;;;;;;;;;;;;;;13.37;38.35;98938.61;1759352;79;20516;-65
2021/04/06 12:47:34;;;;;;;;;;;;;;;13.33;38.44;98940.47;1756604;81;20247;-67
2021/04/06 12:50:04;;;;;;;;;;;;;;;13.29;38.44;98927.31;1756522;81;22337;-67
2021/04/06 12:52:31;;;;;;;;;;;;;;;13.20;38.49;98932.15;1733598;81;20497;-66
2021/04/06 12:54:59;;;;;;;;;;;;;;;13.11;38.80;98937.27;1756434;81;20259;-66
2021/04/06 12:57:27;;;;;;;;;;;;;;;13.01;39.32;98922.47;1756534;81;20187;-67
2021/04/06 12:59:56;;;;;;;;;;;;;;;12.95;39.71;98935.90;1752559;81;20150;-66
2021/04/06 13:02:24;;;;;;;;;;;;;;;12.89;39.97;98941.02;1756934;81;21189;-66
2021/04/06 13:04:52;;;;;;;;;;;;;;;12.87;40.31;98943.72;1744835;82;20256;-66
2021/04/06 13:07:20;;;;;;;;;;;;;;;12.83;40.25;98929.19;1724078;82;20154;-65
2021/04/06 13:09:50;;;;;;;;;;;;;;;12.78;40.79;98941.55;1736553;81;20241;-64
2021/04/06 13:12:20;;;;;;;;;;;;;;;12.75;40.94;98927.81;1740904;82;20182;-64
2021/04/06 13:14:49;;;;;;;;;;;;;;;12.73;41.17;98920.56;1723625;82;21209;-66
2021/04/06 13:17:17;;;;;;;;;;;;;;;12.71;41.37;98935.63;1723523;82;20236;-67
2021/04/06 13:19:44;;;;;;;;;;;;;;;12.69;41.33;98936.95;1729257;82;20196;-65
2021/04/06 13:22:12;;;;;;;;;;;;;;;12.66;41.43;98933.46;1690157;84;20558;-67
2021/04/06 13:24:40;;;;;;;;;;;;;;;12.67;41.11;98911.68;1690176;83;20292;-64
2021/04/06 13:27:08;;;;;;;;;;;;;;;12.67;41.17;98926.47;1690902;84;21107;-66
2021/04/06 13:29:37;;;;;;;;;;;;;;;12.68;41.32;98916.55;1688942;84;20236;-63
2021/04/06 13:32:05;;;;;;;;;;;;;;;12.71;41.00;98923.52;1690792;84;20531;-64
2021/04/06 13:34:33;;;;;;;;;;;;;;;12.74;40.93;98922.19;1688101;84;20309;-65
2021/04/06 13:37:01;;;;;;;;;;;;;;;12.73;40.87;98931.32;1689173;83;20247;-65